Time;durP1;ratioP1;P1;durP2;ratioP2;P2;SDS_P1;SDS_P2;PMS_P1;PMS_P2;Temp;Humidity;BMP_temperature;BMP_pressure;BME280_temperature;BME280_humidity;BME280_pressure;Samples;Min_cycle;Max_cycle;Signal;HPM_P1;HPM_P2
2022/08/27 00:00:21;;;;;;;7.63;2.90;;;16.20;99.90;;;;;;6223943;22;20022;-80
2022/08/27 00:02:47;;;;;;;6.65;3.50;;;16.20;99.90;;;;;;6249954;22;20019;-80
2022/08/27 00:05:16;;;;;;;5.47;3.30;;;16.20;99.90;;;;;;6223822;22;20083;-77
2022/08/27 00:07:43;;;;;;;7.53;3.53;;;16.10;99.90;;;;;;6248567;22;20010;-77
2022/08/27 00:10:11;;;;;;;7.90;3.22;;;16.10;99.90;;;;;;6248526;22;20003;-78
2022/08/27 00:12:37;;;;;;;9.13;3.67;;;16.10;99.90;;;;;;6222402;22;20061;-77
2022/08/27 00:15:05;;;;;;;6.80;3.17;;;16.10;99.90;;;;;;6273435;22;20094;-77
2022/08/27 00:17:31;;;;;;;6.25;3.53;;;16.10;99.90;;;;;;6273906;22;20015;-77
2022/08/27 00:19:57;;;;;;;8.82;3.38;;;16.10;99.90;;;;;;6223880;22;20022;-78
2022/08/27 00:22:23;;;;;;;6.38;3.25;;;16.00;99.90;;;;;;6249048;22;20016;-80
2022/08/27 00:24:48;;;;;;;5.78;3.20;;;16.00;99.90;;;;;;6274270;22;20023;-80
2022/08/27 00:27:14;;;;;;;5.90;3.75;;;16.00;99.90;;;;;;6249867;22;20039;-80
2022/08/27 00:29:40;;;;;;;7.40;3.83;;;16.00;99.90;;;;;;6276596;22;20012;-80
2022/08/27 00:32:07;;;;;;;6.70;3.63;;;16.00;99.90;;;;;;6251123;22;20012;-80
2022/08/27 00:34:33;;;;;;;5.72;3.45;;;15.90;99.90;;;;;;6250624;22;20311;-80
2022/08/27 00:36:59;;;;;;;11.65;4.20;;;15.90;99.90;;;;;;6224960;22;20018;-80
2022/08/27 00:39:25;;;;;;;6.40;3.63;;;15.90;99.90;;;;;;6225161;22;20089;-77
2022/08/27 00:41:51;;;;;;;7.38;3.40;;;15.90;99.90;;;;;;6250546;22;20110;-80
2022/08/27 00:44:16;;;;;;;11.07;4.28;;;15.80;99.90;;;;;;6250520;22;20454;-80
2022/08/27 00:46:47;;;;;;;8.45;4.10;;;15.80;99.90;;;;;;6250436;22;20051;-80
2022/08/27 00:49:19;;;;;;;8.02;4.88;;;15.80;99.90;;;;;;6275409;22;20085;-80
2022/08/27 00:51:52;;;;;;;9.85;4.70;;;15.70;99.90;;;;;;6275444;22;20091;-80
2022/08/27 00:54:19;;;;;;;8.20;4.47;;;15.70;99.90;;;;;;6274940;22;20007;-80
2022/08/27 00:56:46;;;;;;;9.45;4.40;;;15.70;99.90;;;;;;6276306;22;20007;-80
2022/08/27 00:59:14;;;;;;;7.82;4.28;;;15.60;99.90;;;;;;6276070;22;20070;-77
2022/08/27 01:04:28;;;;;;;7.80;4.28;;;15.60;99.90;;;;;;6275427;22;20015;-78
2022/08/27 01:06:54;;;;;;;9.52;5.00;;;15.60;99.90;;;;;;6276685;22;20019;-77
2022/08/27 01:09:21;;;;;;;7.57;4.10;;;15.50;99.90;;;;;;6276649;22;20086;-79
2022/08/27 01:11:47;;;;;;;10.63;4.78;;;15.50;99.90;;;;;;6250953;22;20004;-78
2022/08/27 01:14:14;;;;;;;8.88;4.53;;;15.50;99.90;;;;;;6253548;22;20012;-78
2022/08/27 01:16:48;;;;;;;7.00;4.47;;;15.50;99.90;;;;;;6282326;22;20016;-78
2022/08/27 01:19:37;;;;;;;9.77;4.88;;;15.40;99.90;;;;;;6254270;22;20011;-78
2022/08/27 01:22:42;;;;;;;8.73;4.40;;;15.40;99.90;;;;;;6275203;22;20466;-79
2022/08/27 01:25:11;;;;;;;8.23;4.35;;;15.30;99.90;;;;;;6274284;22;20012;-79
2022/08/27 01:27:39;;;;;;;9.75;4.57;;;15.30;99.90;;;;;;6274156;22;20012;-79
2022/08/27 01:30:07;;;;;;;9.85;4.43;;;15.30;99.90;;;;;;6274338;22;20341;-79
2022/08/27 01:32:34;;;;;;;8.27;4.40;;;15.30;99.90;;;;;;6249194;22;20452;-79
2022/08/27 01:35:03;;;;;;;8.50;5.00;;;15.30;99.90;;;;;;6249660;22;20086;-78
2022/08/27 01:37:29;;;;;;;12.27;5.00;;;15.20;99.90;;;;;;6249917;22;20070;-79
2022/08/27 01:39:57;;;;;;;10.73;4.82;;;15.20;99.90;;;;;;6225915;22;20067;-79
2022/08/27 01:42:29;;;;;;;8.07;4.35;;;15.20;99.90;;;;;;6250050;22;20038;-79
2022/08/27 01:45:02;;;;;;;7.40;4.75;;;15.20;99.90;;;;;;6275507;22;20016;-79
2022/08/27 01:47:28;;;;;;;9.07;4.78;;;15.10;99.90;;;;;;6250082;22;20109;-78
2022/08/27 01:49:54;;;;;;;6.78;4.60;;;15.10;99.90;;;;;;6275808;22;20012;-78
2022/08/27 01:52:23;;;;;;;7.32;4.45;;;15.10;99.90;;;;;;6249781;22;20015;-79
2022/08/27 01:54:52;;;;;;;6.72;4.75;;;15.10;99.90;;;;;;6275933;22;20015;-79
2022/08/27 01:57:19;;;;;;;6.72;4.45;;;15.10;99.90;;;;;;6275900;22;20016;-78
2022/08/27 01:59:45;;;;;;;9.93;4.43;;;15.00;99.90;;;;;;6224593;22;20015;-79
2022/08/27 02:02:13;;;;;;;7.10;4.25;;;15.00;99.90;;;;;;6224687;22;20019;-79
2022/08/27 02:04:40;;;;;;;9.38;4.05;;;15.00;99.90;;;;;;6250553;22;20016;-79
2022/08/27 02:07:06;;;;;;;5.97;3.88;;;15.00;99.90;;;;;;6250510;22;20337;-78
2022/08/27 02:09:32;;;;;;;6.95;4.82;;;15.00;99.90;;;;;;6250279;22;20011;-79
2022/08/27 02:11:59;;;;;;;8.18;4.70;;;14.90;99.90;;;;;;6275521;22;20018;-78
2022/08/27 02:14:26;;;;;;;6.68;4.20;;;14.90;99.90;;;;;;6224670;22;20509;-78
2022/08/27 02:16:52;;;;;;;8.35;4.28;;;14.90;99.90;;;;;;6274762;22;20445;-79
2022/08/27 02:19:18;;;;;;;9.27;4.55;;;14.90;99.90;;;;;;6275670;22;20014;-78
2022/08/27 02:21:44;;;;;;;12.52;4.95;;;14.90;99.90;;;;;;6225279;22;20043;-79
2022/08/27 02:24:10;;;;;;;7.38;4.57;;;14.90;99.90;;;;;;6275671;22;20015;-78
2022/08/27 02:26:36;;;;;;;7.70;4.85;;;14.90;99.90;;;;;;6250720;22;20074;-79
2022/08/27 02:29:02;;;;;;;9.13;5.55;;;14.90;99.90;;;;;;6249694;22;20016;-78
2022/08/27 02:31:28;;;;;;;8.35;5.20;;;14.80;99.90;;;;;;6249153;22;20008;-78
2022/08/27 02:33:54;;;;;;;10.35;4.70;;;14.80;99.90;;;;;;6249334;22;20114;-79
2022/08/27 02:36:20;;;;;;;8.18;4.75;;;14.80;99.90;;;;;;6223909;22;20026;-79
2022/08/27 02:38:45;;;;;;;9.13;5.10;;;14.80;99.90;;;;;;6223894;22;20438;-79
2022/08/27 02:41:11;;;;;;;7.57;4.72;;;14.80;99.90;;;;;;6222807;22;20047;-79
2022/08/27 02:43:37;;;;;;;7.88;5.18;;;14.70;99.90;;;;;;6248532;22;20046;-79
2022/08/27 02:46:03;;;;;;;9.90;4.68;;;14.70;99.90;;;;;;6273703;22;20047;-78
2022/08/27 02:48:29;;;;;;;7.30;4.60;;;14.70;99.90;;;;;;6250204;22;20012;-78
2022/08/27 02:50:54;;;;;;;10.77;4.40;;;14.70;99.90;;;;;;6224820;22;20038;-78
2022/08/27 02:53:20;;;;;;;7.50;4.50;;;14.70;99.90;;;;;;6249968;22;20035;-79
2022/08/27 02:55:47;;;;;;;7.95;4.50;;;14.70;99.90;;;;;;6273690;22;20020;-79
2022/08/27 02:58:15;;;;;;;7.00;4.10;;;14.70;99.90;;;;;;6249037;22;20069;-79
2022/08/27 03:00:43;;;;;;;7.85;4.05;;;14.70;99.90;;;;;;6248554;22;20016;-79
2022/08/27 03:03:12;;;;;;;7.65;4.45;;;14.60;99.90;;;;;;6274597;22;20011;-79
2022/08/27 03:05:38;;;;;;;7.70;4.18;;;14.60;99.90;;;;;;6249175;22;20012;-79
2022/08/27 03:08:04;;;;;;;7.63;4.30;;;14.60;99.90;;;;;;6248357;22;20019;-78
2022/08/27 03:10:30;;;;;;;8.90;4.80;;;14.60;99.90;;;;;;6224813;22;20334;-79
2022/08/27 03:12:56;;;;;;;7.50;4.22;;;14.50;99.90;;;;;;6275450;22;20012;-78
2022/08/27 03:15:22;;;;;;;9.05;4.30;;;14.60;99.90;;;;;;6275665;22;20091;-78
2022/08/27 03:20:36;;;;;;;7.10;4.13;;;14.50;99.90;;;;;;6275371;22;20103;-79
2022/08/27 03:23:01;;;;;;;6.13;4.18;;;14.50;99.90;;;;;;6275951;22;20099;-79
2022/08/27 03:25:27;;;;;;;8.20;4.43;;;14.50;99.90;;;;;;6224066;22;20043;-79
2022/08/27 03:27:53;;;;;;;6.93;4.35;;;14.50;99.90;;;;;;6274589;22;20011;-79
2022/08/27 03:30:21;;;;;;;7.32;4.63;;;14.40;99.90;;;;;;6274608;22;20456;-79
2022/08/27 03:32:48;;;;;;;7.53;3.92;;;14.40;99.90;;;;;;6274151;22;20366;-79
2022/08/27 03:35:14;;;;;;;7.63;4.20;;;14.40;99.90;;;;;;6246323;22;20059;-79
2022/08/27 03:37:40;;;;;;;8.68;4.47;;;14.40;99.90;;;;;;6247627;22;20401;-78
2022/08/27 03:40:06;;;;;;;9.00;4.68;;;14.40;99.90;;;;;;6223372;22;20020;-79
2022/08/27 03:42:33;;;;;;;9.40;4.47;;;14.30;99.90;;;;;;6223794;22;20453;-79
2022/08/27 03:44:59;;;;;;;7.65;3.90;;;14.30;99.90;;;;;;6248882;22;20047;-79
2022/08/27 03:47:25;;;;;;;7.05;4.03;;;14.30;99.90;;;;;;6248398;22;20012;-79
2022/08/27 03:49:51;;;;;;;6.95;4.07;;;14.30;99.90;;;;;;6223923;22;20007;-78
2022/08/27 03:52:18;;;;;;;8.15;3.92;;;14.30;99.90;;;;;;6274687;22;20094;-78
2022/08/27 03:54:44;;;;;;;6.53;4.25;;;14.20;99.90;;;;;;6275018;22;20011;-79
2022/08/27 03:57:10;;;;;;;6.85;4.63;;;14.20;99.90;;;;;;6249017;22;20066;-79
2022/08/27 03:59:36;;;;;;;7.53;4.38;;;14.30;99.90;;;;;;6276073;22;20019;-78
2022/08/27 04:02:03;;;;;;;9.10;4.28;;;14.20;99.90;;;;;;6250008;22;20015;-79
2022/08/27 04:04:30;;;;;;;6.72;4.47;;;14.20;99.90;;;;;;6225724;22;20067;-79
2022/08/27 04:06:56;;;;;;;8.07;4.53;;;14.20;99.90;;;;;;6250526;22;20039;-79
2022/08/27 04:09:22;;;;;;;11.55;4.70;;;14.20;99.90;;;;;;6225397;22;20011;-79
2022/08/27 04:11:48;;;;;;;7.10;4.57;;;14.20;99.90;;;;;;6250459;22;20011;-79
2022/08/27 04:14:14;;;;;;;6.55;4.20;;;14.20;99.90;;;;;;6250993;22;20022;-80
2022/08/27 04:16:40;;;;;;;9.02;4.55;;;14.20;99.90;;;;;;6250647;22;20016;-79
2022/08/27 04:19:06;;;;;;;7.72;4.45;;;14.10;99.90;;;;;;6249457;22;20066;-79
2022/08/27 04:21:34;;;;;;;8.65;4.35;;;14.10;99.90;;;;;;6275945;22;20016;-79
2022/08/27 04:24:00;;;;;;;8.60;4.70;;;14.10;99.90;;;;;;6275815;22;20020;-79
2022/08/27 04:26:27;;;;;;;11.43;4.53;;;14.10;99.90;;;;;;6249923;22;20016;-79
2022/08/27 04:28:54;;;;;;;8.60;4.80;;;14.10;99.90;;;;;;6275731;22;20062;-79
2022/08/27 04:31:20;;;;;;;10.25;5.07;;;14.10;99.90;;;;;;6249140;22;20043;-79
2022/08/27 04:33:46;;;;;;;8.95;4.80;;;14.10;99.90;;;;;;6225373;22;20022;-79
2022/08/27 04:36:13;;;;;;;8.15;4.63;;;14.10;99.90;;;;;;6250658;22;20315;-79
2022/08/27 04:38:38;;;;;;;8.02;4.40;;;14.10;99.90;;;;;;6199491;22;20016;-79
2022/08/27 04:41:19;;;;;;;10.43;4.50;;;14.10;99.90;;;;;;6252139;22;20148;-79
2022/08/27 04:43:46;;;;;;;8.63;4.78;;;14.10;99.90;;;;;;6251483;22;20027;-79
2022/08/27 04:46:12;;;;;;;9.18;4.60;;;14.10;99.90;;;;;;6251080;22;20047;-79
2022/08/27 04:48:38;;;;;;;7.22;4.95;;;14.10;99.90;;;;;;6225505;22;20065;-79
2022/08/27 04:51:03;;;;;;;9.95;4.97;;;14.10;99.90;;;;;;6250406;22;20020;-79
2022/08/27 04:53:30;;;;;;;7.20;4.28;;;14.10;99.90;;;;;;6250227;22;20061;-79
2022/08/27 04:55:56;;;;;;;7.88;4.78;;;14.00;99.90;;;;;;6200714;22;20023;-79
2022/08/27 04:58:25;;;;;;;10.52;4.95;;;14.10;99.90;;;;;;6276840;22;20065;-79
2022/08/27 05:00:53;;;;;;;8.02;4.13;;;14.10;99.90;;;;;;6251442;22;20011;-79
2022/08/27 05:03:24;;;;;;;9.13;4.82;;;14.10;99.90;;;;;;6275925;22;20454;-79
2022/08/27 05:05:52;;;;;;;6.75;4.43;;;14.00;99.90;;;;;;6276166;22;20069;-79
2022/08/27 05:08:18;;;;;;;7.68;4.32;;;14.00;99.90;;;;;;6224404;22;20104;-79
2022/08/27 05:10:46;;;;;;;6.20;4.25;;;14.00;99.90;;;;;;6250528;22;20103;-79
2022/08/27 05:13:12;;;;;;;6.43;4.55;;;14.10;99.90;;;;;;6275724;22;20008;-79
2022/08/27 05:15:38;;;;;;;8.48;4.50;;;14.10;99.90;;;;;;6250815;22;20417;-79
2022/08/27 05:18:06;;;;;;;10.32;4.90;;;14.10;99.90;;;;;;6225571;22;20472;-79
2022/08/27 05:20:33;;;;;;;8.80;4.45;;;14.10;99.90;;;;;;6225118;22;20012;-79
2022/08/27 05:22:59;;;;;;;9.52;4.80;;;14.10;99.90;;;;;;6250439;22;20015;-79
2022/08/27 05:25:26;;;;;;;7.30;4.75;;;14.10;99.90;;;;;;6275888;22;20022;-79
2022/08/27 05:27:52;;;;;;;10.43;4.60;;;14.10;99.90;;;;;;6275031;22;20038;-79
2022/08/27 05:30:18;;;;;;;6.22;4.25;;;14.10;99.90;;;;;;6275387;22;20011;-79
2022/08/27 05:32:44;;;;;;;8.68;4.68;;;14.20;99.90;;;;;;6250228;22;20039;-79
2022/08/27 05:35:09;;;;;;;7.55;4.70;;;14.20;99.90;;;;;;6249443;22;20015;-79
2022/08/27 05:37:35;;;;;;;7.25;4.47;;;14.20;99.90;;;;;;6249430;22;20023;-79
2022/08/27 05:40:05;;;;;;;7.32;4.90;;;14.20;99.90;;;;;;6249796;22;20354;-79
2022/08/27 05:42:32;;;;;;;8.38;4.30;;;14.20;99.90;;;;;;6250204;22;20030;-79
2022/08/27 05:44:58;;;;;;;6.10;4.18;;;14.30;99.90;;;;;;6275722;22;20035;-79
2022/08/27 05:47:24;;;;;;;6.50;4.00;;;14.20;99.90;;;;;;6224198;22;20038;-79
2022/08/27 05:49:54;;;;;;;6.18;3.88;;;14.30;99.90;;;;;;6274889;22;20024;-79
2022/08/27 05:52:20;;;;;;;8.93;4.35;;;14.30;99.90;;;;;;6224674;22;20008;-79
2022/08/27 05:54:47;;;;;;;7.47;3.90;;;14.30;99.90;;;;;;6223965;22;20019;-79
2022/08/27 05:57:13;;;;;;;9.52;4.50;;;14.40;99.90;;;;;;6224597;22;20011;-79
2022/08/27 06:02:23;;;;;;;8.32;4.47;;;14.40;99.90;;;;;;6274199;22;20016;-77
2022/08/27 06:04:49;;;;;;;8.27;4.10;;;14.50;99.90;;;;;;6223917;22;20012;-78
2022/08/27 06:07:15;;;;;;;8.38;3.78;;;14.50;99.90;;;;;;6248033;22;20012;-78
2022/08/27 06:09:42;;;;;;;6.25;3.42;;;14.60;99.90;;;;;;6249139;22;20097;-77
2022/08/27 06:12:08;;;;;;;5.90;3.47;;;14.60;99.90;;;;;;6249572;22;20016;-77
2022/08/27 06:14:35;;;;;;;8.52;3.70;;;14.70;99.90;;;;;;6249608;22;20003;-78
2022/08/27 06:17:01;;;;;;;7.50;4.00;;;14.70;99.90;;;;;;6274578;22;20012;-78
2022/08/27 06:19:26;;;;;;;7.13;3.85;;;14.70;99.90;;;;;;6274487;22;20137;-78
2022/08/27 06:21:52;;;;;;;7.50;4.00;;;14.80;99.90;;;;;;6249192;22;20007;-78
2022/08/27 06:24:18;;;;;;;5.97;3.53;;;14.90;99.90;;;;;;6274790;22;20011;-77
2022/08/27 06:26:44;;;;;;;7.72;4.00;;;14.90;99.90;;;;;;6274780;22;20019;-77
2022/08/27 06:29:11;;;;;;;11.73;4.03;;;15.00;99.90;;;;;;6274166;22;20043;-80
2022/08/27 06:31:38;;;;;;;9.68;3.15;;;15.10;99.90;;;;;;6249499;22;20466;-77
2022/08/27 06:34:06;;;;;;;8.15;3.28;;;15.20;99.90;;;;;;6250645;22;20023;-78
2022/08/27 06:36:34;;;;;;;5.63;3.22;;;15.20;99.90;;;;;;6250673;22;20325;-77
2022/08/27 06:39:00;;;;;;;6.55;3.45;;;15.30;99.90;;;;;;6274655;22;20453;-79
2022/08/27 06:41:27;;;;;;;9.77;3.40;;;15.40;99.90;;;;;;6227732;22;20012;-77
2022/08/27 06:43:55;;;;;;;9.30;3.30;;;15.50;99.90;;;;;;6249359;22;20070;-78
2022/08/27 06:46:24;;;;;;;4.18;2.97;;;15.60;99.90;;;;;;6248332;22;20445;-77
2022/08/27 06:48:55;;;;;;;7.25;3.08;;;15.70;99.90;;;;;;6249113;22;20035;-77
2022/08/27 06:51:25;;;;;;;10.93;2.92;;;15.80;99.90;;;;;;6250540;22;20012;-78
2022/08/27 06:53:52;;;;;;;6.82;2.97;;;15.80;99.90;;;;;;6274885;22;20007;-79
2022/08/27 06:56:19;;;;;;;8.73;3.40;;;16.00;99.90;;;;;;6274331;22;20019;-79
2022/08/27 06:58:45;;;;;;;6.80;3.60;;;16.10;99.90;;;;;;6248882;22;20073;-78
2022/08/27 07:01:14;;;;;;;6.93;3.60;;;16.20;99.90;;;;;;6249637;22;20012;-78
2022/08/27 07:03:42;;;;;;;12.13;3.60;;;16.20;99.90;;;;;;6249366;22;20015;-78
2022/08/27 07:06:08;;;;;;;7.97;3.15;;;16.40;99.90;;;;;;6249802;22;20038;-78
2022/08/27 07:08:34;;;;;;;5.80;2.83;;;16.50;99.90;;;;;;6248730;22;20011;-78
2022/08/27 07:11:00;;;;;;;9.52;3.33;;;16.80;99.90;;;;;;6249639;22;20455;-78
2022/08/27 07:13:27;;;;;;;7.28;2.70;;;17.20;99.90;;;;;;6223926;22;20011;-78
2022/08/27 07:15:53;;;;;;;7.28;3.20;;;17.60;99.90;;;;;;6249465;22;20346;-78
2022/08/27 07:18:19;;;;;;;5.28;2.30;;;17.90;99.90;;;;;;6248969;22;20020;-77
2022/08/27 07:20:44;;;;;;;8.00;2.35;;;18.10;99.90;;;;;;6223681;22;20481;-79
2022/08/27 07:23:10;;;;;;;7.20;2.42;;;18.20;99.90;;;;;;6223628;22;20065;-78
2022/08/27 07:25:35;;;;;;;4.72;2.47;;;18.00;99.90;;;;;;6274514;22;20023;-78
2022/08/27 07:28:01;;;;;;;5.78;2.20;;;18.00;99.90;;;;;;6272763;22;20051;-78
2022/08/27 07:30:27;;;;;;;6.93;2.55;;;17.90;99.90;;;;;;6274166;22;20437;-78
2022/08/27 07:32:53;;;;;;;6.32;2.22;;;17.80;99.90;;;;;;6223552;22;20012;-79
2022/08/27 07:35:19;;;;;;;6.28;1.98;;;17.80;99.90;;;;;;6248761;22;20342;-78
2022/08/27 07:37:45;;;;;;;8.23;2.42;;;17.60;99.90;;;;;;6222726;22;20026;-78
2022/08/27 07:40:14;;;;;;;5.55;1.80;;;17.90;99.90;;;;;;6223335;22;20016;-78
2022/08/27 07:45:25;;;;;;;5.07;1.95;;;17.90;99.90;;;;;;6274203;22;20027;-78
2022/08/27 07:47:51;;;;;;;6.85;2.15;;;17.90;99.90;;;;;;6222931;22;20008;-78
2022/08/27 07:50:17;;;;;;;4.35;1.83;;;18.10;99.90;;;;;;6248956;22;20015;-78
2022/08/27 07:52:43;;;;;;;4.20;2.00;;;18.40;99.90;;;;;;6247883;22;20501;-78
2022/08/27 07:55:12;;;;;;;8.20;2.33;;;18.60;99.90;;;;;;6223154;22;20065;-78
2022/08/27 07:57:38;;;;;;;6.60;1.88;;;18.80;99.90;;;;;;6248123;22;20444;-78
2022/08/27 08:00:09;;;;;;;6.47;1.80;;;19.10;99.90;;;;;;6248504;22;20034;-79
2022/08/27 08:02:35;;;;;;;6.97;1.88;;;19.20;99.90;;;;;;6248262;22;20050;-78
2022/08/27 08:05:01;;;;;;;6.80;1.90;;;19.20;99.90;;;;;;6247997;22;20307;-78
2022/08/27 08:07:27;;;;;;;7.82;1.83;;;19.20;99.90;;;;;;6273240;22;20011;-78
2022/08/27 08:09:53;;;;;;;7.88;1.80;;;19.30;99.90;;;;;;6248623;22;20073;-78
2022/08/27 08:12:19;;;;;;;6.43;2.10;;;19.30;99.90;;;;;;6248624;22;20011;-78
2022/08/27 08:14:45;;;;;;;5.72;1.60;;;19.40;99.90;;;;;;6273444;22;20008;-79
2022/08/27 08:17:12;;;;;;;5.75;1.73;;;19.40;99.90;;;;;;6223321;22;20365;-79
2022/08/27 08:19:39;;;;;;;6.68;1.58;;;19.50;99.90;;;;;;6247829;22;20019;-79
2022/08/27 08:22:05;;;;;;;9.40;1.70;;;19.50;99.90;;;;;;6248321;22;20094;-79
2022/08/27 08:24:30;;;;;;;9.98;2.00;;;19.60;99.90;;;;;;6223701;22;20503;-78
2022/08/27 08:26:56;;;;;;;7.82;1.60;;;19.80;99.90;;;;;;6273090;22;20019;-78
2022/08/27 08:29:21;;;;;;;10.07;1.70;;;20.00;99.90;;;;;;6273383;22;20086;-78
2022/08/27 08:31:47;;;;;;;6.80;1.90;;;20.10;99.90;;;;;;6223668;22;20016;-78
2022/08/27 08:34:13;;;;;;;3.63;1.50;;;20.20;99.90;;;;;;6223501;22;20023;-78
2022/08/27 08:36:39;;;;;;;6.55;1.75;;;20.30;99.90;;;;;;6247777;22;20023;-78
2022/08/27 08:39:05;;;;;;;4.22;1.50;;;20.20;99.90;;;;;;6223052;22;20408;-78
2022/08/27 08:41:41;;;;;;;6.35;1.58;;;20.20;99.90;;;;;;6198903;22;20325;-78
2022/08/27 08:44:40;;;;;;;7.13;1.75;;;20.00;99.90;;;;;;6248131;22;20015;-78
2022/08/27 08:47:23;;;;;;;6.35;1.40;;;20.10;99.90;;;;;;6250278;22;20019;-78
2022/08/27 08:50:05;;;;;;;5.28;1.70;;;20.20;99.90;;;;;;6276354;22;20015;-78
2022/08/27 08:52:34;;;;;;;8.05;2.13;;;20.40;99.90;;;;;;6250016;22;20016;-78
2022/08/27 08:55:09;;;;;;;5.43;1.65;;;20.30;99.90;;;;;;6273997;22;20015;-78
2022/08/27 08:57:44;;;;;;;9.15;1.65;;;20.30;99.90;;;;;;6250145;22;20018;-78
2022/08/27 09:00:12;;;;;;;;;;;20.40;99.90;;;;;;6248571;22;20015;-79
2022/08/27 09:02:39;;;;;;;8.27;1.80;;;20.20;99.90;;;;;;6275252;22;19911;-79
2022/08/27 09:05:07;;;;;;;6.20;1.90;;;20.00;99.90;;;;;;6275775;22;20052;-78
2022/08/27 09:07:44;;;;;;;6.90;1.67;;;20.00;99.90;;;;;;6249792;22;20019;-78
2022/08/27 09:10:31;;;;;;;5.88;1.58;;;19.90;99.90;;;;;;6275128;22;20042;-78
2022/08/27 09:13:01;;;;;;;9.65;2.05;;;19.90;99.90;;;;;;6249715;22;20064;-78
2022/08/27 09:15:32;;;;;;;5.60;1.70;;;19.80;99.90;;;;;;6275452;22;20516;-79
2022/08/27 09:18:24;;;;;;;9.95;2.15;;;19.80;99.90;;;;;;6249845;22;20106;-78
2022/08/27 09:20:58;;;;;;;5.72;1.88;;;19.80;99.90;;;;;;6242776;22;20015;-78
2022/08/27 09:23:45;;;;;;;10.57;1.90;;;19.70;99.90;;;;;;6274756;22;20019;-78
2022/08/27 09:26:23;;;;;;;7.13;1.80;;;19.70;99.90;;;;;;6273854;22;20043;-78
2022/08/27 09:31:43;;;;;;;7.40;1.83;;;19.60;99.90;;;;;;6274824;22;20069;-79
2022/08/27 09:34:09;;;;;;;7.68;2.00;;;19.60;99.90;;;;;;6249658;22;20015;-78
2022/08/27 09:36:59;;;;;;;7.78;1.80;;;19.60;99.90;;;;;;6248949;22;20020;-78
2022/08/27 09:39:47;;;;;;;5.85;1.98;;;19.70;99.90;;;;;;6221728;22;20029;-78
2022/08/27 09:42:45;;;;;;;5.65;1.55;;;19.70;99.90;;;;;;6177567;22;20027;-78
2022/08/27 09:45:20;;;;;;;8.90;2.08;;;19.70;99.90;;;;;;6223792;22;20445;-78
2022/08/27 09:47:49;;;;;;;4.85;1.70;;;19.70;99.90;;;;;;6248875;22;20039;-78
2022/08/27 09:50:20;;;;;;;7.53;2.33;;;19.70;99.90;;;;;;6249383;22;20015;-78
2022/08/27 09:52:58;;;;;;;7.57;1.70;;;19.70;99.90;;;;;;6223477;22;20110;-78
2022/08/27 09:55:46;;;;;;;11.70;2.00;;;19.80;99.90;;;;;;6223599;22;20038;-78
2022/08/27 09:58:22;;;;;;;4.55;1.55;;;19.80;99.90;;;;;;6249361;22;20015;-78
2022/08/27 10:01:02;;;;;;;7.82;1.75;;;19.90;99.90;;;;;;6223988;22;20434;-78
2022/08/27 10:03:28;;;;;;;6.78;1.80;;;19.90;99.90;;;;;;6224154;22;20412;-78
2022/08/27 10:05:54;;;;;;;5.20;1.70;;;19.90;99.90;;;;;;6249038;22;20012;-78
2022/08/27 10:08:27;;;;;;;5.43;1.80;;;20.00;99.90;;;;;;6249142;22;20046;-78
2022/08/27 10:11:03;;;;;;;7.15;1.85;;;20.00;99.90;;;;;;6224223;22;20497;-78
2022/08/27 10:13:58;;;;;;;8.25;2.00;;;20.10;99.90;;;;;;6248981;22;20087;-79
2022/08/27 10:16:39;;;;;;;7.60;2.13;;;20.10;99.90;;;;;;6245974;22;20465;-78
2022/08/27 10:19:41;;;;;;;6.55;1.67;;;20.10;99.90;;;;;;6223840;22;20073;-78
2022/08/27 10:22:30;;;;;;;4.97;1.65;;;20.20;99.90;;;;;;6249998;22;20015;-78
2022/08/27 10:25:21;;;;;;;5.78;1.92;;;20.10;99.90;;;;;;6249084;22;20018;-78
2022/08/27 10:28:05;;;;;;;8.80;1.60;;;20.10;99.90;;;;;;6247316;22;20433;-82
2022/08/27 10:31:07;;;;;;;6.00;2.17;;;20.20;99.90;;;;;;6225061;22;20437;-79
2022/08/27 10:33:41;;;;;;;4.38;1.48;;;20.10;99.90;;;;;;6208280;22;20018;-79
2022/08/27 10:36:51;;;;;;;5.97;1.80;;;20.10;99.90;;;;;;6223169;22;20051;-79
2022/08/27 10:39:29;;;;;;;9.77;1.85;;;20.10;99.90;;;;;;6248591;22;20034;-78
2022/08/27 10:42:03;;;;;;;6.03;1.85;;;20.10;99.90;;;;;;6249451;22;20020;-78
2022/08/27 10:44:38;;;;;;;8.55;2.20;;;20.20;99.90;;;;;;6248431;22;20016;-78
2022/08/27 10:47:30;;;;;;;9.30;1.80;;;20.30;99.90;;;;;;6248533;22;20449;-76
2022/08/27 10:50:18;;;;;;;4.35;1.33;;;20.40;99.90;;;;;;6249564;22;20157;-79
2022/08/27 10:52:53;;;;;;;9.10;2.28;;;20.40;99.90;;;;;;6222875;22;20019;-79
2022/08/27 10:55:30;;;;;;;8.30;1.57;;;20.50;99.90;;;;;;6224215;22;20011;-78
2022/08/27 10:58:34;;;;;;;6.40;1.50;;;20.50;99.90;;;;;;6223151;22;20311;-78
2022/08/27 11:01:09;;;;;;;7.40;1.65;;;20.60;99.90;;;;;;6246446;22;20341;-78
2022/08/27 11:03:50;;;;;;;7.10;1.87;;;20.70;99.90;;;;;;6223636;22;20141;-79
2022/08/27 11:06:25;;;;;;;6.40;1.55;;;20.80;99.90;;;;;;6223634;22;20270;-78
2022/08/27 11:09:13;;;;;;;5.65;2.10;;;20.90;99.90;;;;;;6247354;22;20459;-79
2022/08/27 11:11:45;;;;;;;9.68;1.75;;;20.90;99.90;;;;;;6223708;22;20015;-78
2022/08/27 11:14:37;;;;;;;5.43;1.70;;;21.00;99.90;;;;;;6248225;22;20011;-78
2022/08/27 11:17:16;;;;;;;6.07;1.52;;;20.90;99.90;;;;;;6248387;22;20019;-79
2022/08/27 11:19:54;;;;;;;7.13;1.85;;;20.80;99.90;;;;;;6249431;22;20016;-79
2022/08/27 11:22:28;;;;;;;7.22;1.95;;;20.80;99.90;;;;;;6248401;22;20047;-78
2022/08/27 11:25:04;;;;;;;6.32;1.60;;;20.90;99.90;;;;;;6222981;22;20022;-79
2022/08/27 11:27:33;;;;;;;8.95;2.20;;;20.70;99.90;;;;;;6248178;22;20020;-82
2022/08/27 11:30:11;;;;;;;9.15;2.00;;;20.70;99.90;;;;;;6249875;22;20065;-82
2022/08/27 11:32:43;;;;;;;5.97;1.70;;;20.80;99.90;;;;;;6224259;22;20094;-81
2022/08/27 11:35:15;;;;;;;7.10;1.80;;;20.80;99.90;;;;;;6224861;22;20342;-82
2022/08/27 11:38:16;;;;;;;6.75;1.80;;;20.90;99.90;;;;;;6255567;22;20019;-82
2022/08/27 11:41:23;;;;;;;5.50;1.70;;;21.00;99.90;;;;;;6275438;22;20069;-82
2022/08/27 11:43:50;;;;;;;6.75;1.52;;;21.10;99.90;;;;;;6274137;22;20016;-82
2022/08/27 11:46:25;;;;;;;6.43;1.80;;;21.20;99.70;;;;;;6250141;22;20019;-83
2022/08/27 11:49:03;;;;;;;6.00;1.50;;;21.30;99.80;;;;;;6249089;22;20306;-82
2022/08/27 11:51:35;;;;;;;7.35;2.88;;;21.40;99.90;;;;;;6249874;22;20015;-82
2022/08/27 11:54:06;;;;;;;29.50;4.75;;;21.40;99.90;;;;;;6275670;22;20007;-82
2022/08/27 11:56:34;;;;;;;7.88;2.08;;;21.50;99.90;;;;;;6250930;22;20018;-82
2022/08/27 11:59:27;;;;;;;11.20;2.60;;;21.50;99.90;;;;;;6274699;22;20035;-82
2022/08/27 12:01:56;;;;;;;6.53;1.80;;;21.60;99.90;;;;;;6250074;22;20034;-81
2022/08/27 12:04:37;;;;;;;7.32;1.83;;;21.70;99.90;;;;;;6249490;22;20023;-82
2022/08/27 12:07:23;;;;;;;6.90;1.88;;;21.80;99.90;;;;;;6249892;22;20016;-81
2022/08/27 12:09:56;;;;;;;5.78;1.58;;;21.80;99.70;;;;;;6258360;22;20020;-82
2022/08/27 12:12:37;;;;;;;10.50;1.70;;;21.90;98.30;;;;;;6283510;22;20012;-82
2022/08/27 12:15:16;;;;;;;8.52;1.80;;;21.80;98.90;;;;;;6252664;22;20012;-83
2022/08/27 12:18:10;;;;;;;7.47;1.60;;;21.80;99.10;;;;;;6285825;22;20012;-81
2022/08/27 12:20:48;;;;;;;7.65;1.75;;;21.90;98.80;;;;;;6283867;22;20016;-82
2022/08/27 12:23:41;;;;;;;7.88;1.70;;;22.00;97.90;;;;;;6278099;22;20034;-82
2022/08/27 12:26:34;;;;;;;6.15;1.77;;;21.90;98.40;;;;;;6278411;22;20095;-82
2022/08/27 12:29:23;;;;;;;6.50;1.85;;;21.90;98.60;;;;;;6277020;22;20019;-82
2022/08/27 12:31:53;;;;;;;8.45;1.70;;;22.00;98.20;;;;;;6252057;22;20007;-82
2022/08/27 12:34:24;;;;;;;8.32;1.90;;;22.00;97.50;;;;;;6277733;22;20007;-82
2022/08/27 12:36:52;;;;;;;5.57;1.50;;;22.00;97.50;;;;;;6251267;22;20015;-83
2022/08/27 12:39:28;;;;;;;5.45;1.77;;;22.00;97.80;;;;;;6251481;22;20066;-82
2022/08/27 12:41:54;;;;;;;6.35;1.75;;;22.10;97.60;;;;;;6251229;22;20499;-82
2022/08/27 12:44:38;;;;;;;6.32;1.45;;;22.20;97.60;;;;;;6277016;22;20086;-83
2022/08/27 12:47:09;;;;;;;4.57;1.40;;;22.20;97.90;;;;;;6251246;22;20016;-82
2022/08/27 12:49:52;;;;;;;6.32;1.45;;;22.20;98.60;;;;;;6277025;22;20315;-83
2022/08/27 12:52:41;;;;;;;5.95;1.73;;;22.50;98.00;;;;;;6250935;22;20039;-81
2022/08/27 12:55:14;;;;;;;6.07;1.63;;;22.50;97.00;;;;;;6276488;22;20515;-82
2022/08/27 12:57:46;;;;;;;6.03;1.63;;;22.50;96.50;;;;;;6276635;22;20026;-83
2022/08/27 13:00:18;;;;;;;3.85;1.58;;;22.40;97.10;;;;;;6276721;22;20023;-82
2022/08/27 13:03:14;;;;;;;6.68;1.88;;;22.40;97.10;;;;;;6251708;22;20016;-83
2022/08/27 13:05:43;;;;;;;5.07;1.30;;;22.70;95.80;;;;;;6277692;22;20062;-82
2022/08/27 13:08:22;;;;;;;7.68;1.67;;;23.10;95.20;;;;;;6251622;22;20576;-82
2022/08/27 13:10:49;;;;;;;4.03;1.20;;;23.20;94.40;;;;;;6251230;22;20042;-83
2022/08/27 13:13:18;;;;;;;5.03;1.63;;;23.20;94.40;;;;;;6251707;22;20066;-82
2022/08/27 13:15:47;;;;;;;7.32;1.20;;;23.10;95.00;;;;;;6277678;22;20012;-82
2022/08/27 13:18:14;;;;;;;8.63;1.73;;;22.90;94.40;;;;;;6251771;22;20007;-82